createdAt,value
2019-05-12T00:02:11.511Z,6.01
2019-05-12T00:06:14.982Z,6.01
2019-05-12T00:10:18.706Z,5.95
2019-05-12T00:14:22.197Z,5.92
2019-05-12T00:18:25.671Z,5.87
2019-05-12T00:22:31.135Z,5.75
2019-05-12T00:26:34.610Z,5.66
2019-05-12T00:30:39.729Z,5.62
2019-05-12T00:34:48.046Z,5.63
2019-05-12T00:38:51.130Z,5.59
2019-05-12T00:42:54.599Z,5.49
2019-05-12T00:46:58.085Z,5.45
2019-05-12T00:51:01.851Z,5.46
2019-05-12T00:55:07.932Z,5.40
2019-05-12T00:59:11.384Z,5.33
2019-05-12T01:03:14.868Z,5.30
2019-05-12T01:07:18.465Z,5.25
2019-05-12T01:11:22.169Z,5.22
2019-05-12T01:15:25.643Z,5.18
2019-05-12T01:19:29.122Z,5.22
2019-05-12T01:23:32.599Z,5.17
2019-05-12T01:27:38.103Z,5.17
2019-05-12T01:31:42.919Z,5.14
2019-05-12T01:35:48.282Z,5.12
2019-05-12T01:39:59.738Z,5.11
2019-05-12T01:44:00.455Z,5.03
2019-05-12T01:48:03.942Z,5.00
2019-05-12T01:52:08.685Z,4.96
2019-05-12T01:56:12.179Z,4.91
2019-05-12T02:00:18.281Z,4.85
2019-05-12T02:04:21.550Z,4.80
2019-05-12T02:08:32.720Z,4.68
2019-05-12T02:12:38.352Z,4.60
2019-05-12T02:16:41.708Z,4.50
2019-05-12T02:20:45.186Z,4.46
2019-05-12T02:24:49.038Z,4.41
2019-05-12T02:28:52.518Z,4.34
2019-05-12T02:32:59.162Z,4.34
2019-05-12T02:37:04.987Z,4.28
2019-05-12T02:41:06.414Z,4.21
2019-05-12T02:45:10.540Z,4.15
2019-05-12T02:49:15.687Z,4.12
2019-05-12T02:53:19.224Z,4.11
2019-05-12T02:57:25.719Z,4.08
2019-05-12T03:01:29.930Z,4.02
2019-05-12T03:05:35.535Z,4.01
2019-05-12T03:09:40.403Z,3.93
2019-05-12T03:13:44.948Z,3.88
2019-05-12T03:17:50.071Z,3.88
2019-05-12T03:21:54.756Z,3.96
2019-05-12T03:25:58.474Z,4.00
2019-05-12T03:30:06.291Z,4.00
2019-05-12T03:34:10.261Z,4.15
2019-05-12T03:38:14.921Z,4.10
2019-05-12T03:42:17.911Z,4.07
2019-05-12T03:46:24.548Z,4.07
2019-05-12T03:50:26.629Z,4.03
2019-05-12T03:54:30.113Z,4.09
2019-05-12T03:58:34.628Z,4.18
2019-05-12T04:02:38.396Z,4.28
2019-05-12T04:06:44.978Z,4.40
2019-05-12T04:10:47.036Z,4.48
2019-05-12T04:14:51.092Z,4.58
2019-05-12T04:18:55.337Z,4.68
2019-05-12T04:22:59.229Z,4.80
2019-05-12T04:27:05.379Z,4.94
2019-05-12T04:31:08.260Z,5.07
2019-05-12T04:35:14.788Z,5.22
2019-05-12T04:39:18.766Z,5.25
2019-05-12T04:43:25.311Z,5.42
2019-05-12T04:47:27.880Z,5.42
2019-05-12T04:51:34.675Z,5.73
2019-05-12T04:55:36.960Z,5.83
2019-05-12T04:59:40.523Z,5.90
2019-05-12T05:03:44.370Z,6.00
2019-05-12T05:07:50.009Z,6.17
2019-05-12T05:11:54.391Z,6.37
2019-05-12T05:15:57.941Z,6.51
2019-05-12T05:20:03.951Z,6.62
2019-05-12T05:24:06.782Z,6.66
2019-05-12T05:28:10.333Z,6.76
2019-05-12T05:32:14.108Z,6.86
2019-05-12T05:36:19.838Z,7.04
2019-05-12T05:40:25.977Z,7.09
2019-05-12T05:44:29.154Z,7.27
2019-05-12T05:48:35.188Z,7.35
2019-05-12T05:52:38.945Z,7.50
2019-05-12T05:56:50.682Z,7.73
2019-05-12T06:00:48.080Z,7.76
2019-05-12T06:04:54.092Z,8.03
2019-05-12T06:08:58.377Z,8.43
2019-05-12T06:13:04.111Z,8.41
2019-05-12T06:17:07.312Z,8.83
2019-05-12T06:21:10.885Z,10.00
2019-05-12T06:25:16.264Z,10.00
2019-05-12T06:29:21.941Z,9.53
2019-05-12T06:33:31.479Z,9.56
2019-05-12T06:37:30.366Z,9.54
2019-05-12T06:41:34.190Z,9.93
2019-05-12T06:45:42.657Z,10.28
2019-05-12T06:49:43.977Z,11.21
2019-05-12T06:53:47.640Z,12.40
2019-05-12T06:57:53.884Z,13.56
2019-05-12T07:02:00.444Z,17.06
2019-05-12T07:06:04.084Z,19.11
2019-05-12T07:10:13.079Z,19.64
2019-05-12T07:14:22.670Z,18.76
2019-05-12T07:18:26.122Z,19.13
2019-05-12T07:22:26.005Z,18.92
2019-05-12T07:26:29.434Z,18.01
2019-05-12T07:30:35.133Z,21.01
2019-05-12T07:34:38.635Z,21.82
2019-05-12T07:38:44.002Z,22.59
2019-05-12T07:42:50.457Z,24.59
2019-05-12T07:46:54.216Z,24.42
2019-05-12T07:51:00.532Z,24.36
2019-05-12T07:55:04.297Z,24.38
2019-05-12T07:59:07.928Z,24.31
2019-05-12T08:03:15.943Z,23.67
2019-05-12T08:07:19.792Z,25.12
2019-05-12T08:11:23.613Z,22.99
2019-05-12T08:15:27.094Z,22.96
2019-05-12T08:19:30.581Z,24.28
2019-05-12T08:23:37.440Z,24.62
2019-05-12T08:27:45.368Z,25.59
2019-05-12T08:31:44.831Z,26.26
2019-05-12T08:35:48.381Z,25.07
2019-05-12T08:39:53.250Z,24.99
2019-05-12T08:43:58.474Z,26.40
2019-05-12T08:48:03.849Z,24.28
2019-05-12T08:52:07.555Z,25.62
2019-05-12T08:56:14.729Z,25.19
2019-05-12T09:00:19.789Z,24.31
2019-05-12T09:04:24.778Z,26.70
2019-05-12T09:08:29.556Z,25.39
2019-05-12T09:12:34.619Z,25.29
2019-05-12T09:16:38.095Z,25.96
2019-05-12T09:20:48.733Z,26.02
2019-05-12T09:24:46.827Z,23.73
2019-05-12T09:28:50.577Z,25.34
2019-05-12T09:32:56.094Z,25.89
2019-05-12T09:37:01.059Z,24.15
2019-05-12T09:41:05.513Z,26.90
2019-05-12T09:45:10.534Z,22.65
2019-05-12T09:49:14.329Z,25.93
2019-05-12T09:53:17.918Z,25.73
2019-05-12T09:57:23.803Z,24.90
2019-05-12T10:01:29.279Z,25.35
2019-05-12T10:05:39.190Z,27.26
2019-05-12T10:09:37.690Z,25.33
2019-05-12T10:13:41.176Z,25.15
2019-05-12T10:17:44.642Z,24.25
2019-05-12T10:21:49.148Z,23.74
2019-05-12T10:25:53.876Z,24.14
2019-05-12T10:29:57.350Z,24.81
2019-05-12T10:34:19.164Z,22.68
2019-05-12T10:38:24.137Z,24.63
2019-05-12T10:42:27.769Z,22.67
2019-05-12T10:46:31.253Z,24.14
2019-05-12T10:50:34.785Z,22.35
2019-05-12T10:54:43.323Z,24.03
2019-05-12T10:58:46.116Z,22.61
2019-05-12T11:02:49.585Z,23.58
2019-05-12T11:06:53.995Z,23.84
2019-05-12T11:11:00.972Z,20.74
2019-05-12T11:15:06.602Z,17.38
2019-05-12T11:19:10.676Z,17.05
2019-05-12T11:23:14.559Z,18.35
2019-05-12T11:27:20.727Z,18.77
2019-05-12T11:31:24.428Z,18.31
2019-05-12T11:35:28.083Z,18.32
2019-05-12T11:39:36.732Z,18.18
2019-05-12T11:43:36.760Z,17.85
2019-05-12T11:47:40.237Z,18.02
2019-05-12T11:51:43.683Z,17.31
2019-05-12T11:55:47.168Z,18.22
2019-05-12T12:00:02.283Z,17.87
2019-05-12T12:03:58.868Z,18.85
2019-05-12T12:08:03.957Z,18.18
2019-05-12T12:12:08.078Z,17.86
2019-05-12T12:16:13.997Z,18.20
2019-05-12T12:20:22.493Z,18.66
2019-05-12T12:24:29.814Z,18.76
2019-05-12T12:28:29.088Z,17.43
2019-05-12T12:32:33.939Z,17.74
2019-05-12T12:36:37.463Z,17.73
2019-05-12T12:40:41.147Z,17.51
2019-05-12T12:44:44.700Z,17.27
2019-05-12T12:48:48.196Z,17.19
2019-05-12T12:52:53.412Z,16.15
2019-05-12T12:57:00.223Z,16.27
2019-05-12T13:01:03.682Z,16.75
2019-05-12T13:05:07.327Z,17.36
2019-05-12T13:09:18.218Z,17.23
2019-05-12T13:13:16.648Z,16.52
2019-05-12T13:17:20.113Z,16.84
2019-05-12T13:21:23.937Z,16.27
2019-05-12T13:25:27.419Z,16.30
2019-05-12T13:29:38.609Z,16.75
2019-05-12T13:33:39.263Z,16.90
2019-05-12T13:37:56.399Z,16.84
2019-05-12T13:42:00.344Z,15.99
2019-05-12T13:46:03.893Z,16.64
2019-05-12T13:50:13.315Z,17.03
2019-05-12T13:54:14.405Z,17.06
2019-05-12T13:58:18.020Z,17.21
2019-05-12T14:02:22.351Z,16.78
2019-05-12T14:06:32.058Z,16.97
2019-05-12T14:10:35.570Z,16.63
2019-05-12T14:14:38.144Z,16.54
2019-05-12T14:18:44.021Z,16.63
2019-05-12T14:22:47.018Z,16.55
2019-05-12T14:32:12.297Z,16.52
2019-05-12T14:36:21.282Z,16.45
2019-05-12T14:40:21.287Z,16.73
2019-05-12T14:44:23.814Z,16.37
2019-05-12T14:48:27.787Z,16.50
2019-05-12T14:52:33.311Z,15.90
2019-05-12T14:56:36.592Z,16.23
2019-05-12T15:00:40.535Z,16.08
2019-05-12T15:04:44.603Z,16.47
2019-05-12T15:08:48.084Z,15.67
2019-05-12T15:12:54.329Z,15.56
2019-05-12T15:16:58.042Z,15.96
2019-05-12T15:21:03.562Z,15.59
2019-05-12T15:25:07.180Z,15.54
2019-05-12T15:29:13.385Z,15.11
2019-05-12T15:33:16.321Z,15.07
2019-05-12T15:37:19.879Z,14.94
2019-05-12T15:41:23.873Z,15.00
2019-05-12T15:45:27.530Z,14.82
2019-05-12T15:49:33.470Z,14.87
2019-05-12T15:53:36.563Z,14.77
2019-05-12T15:57:40.377Z,14.52
2019-05-12T16:01:44.080Z,14.68
2019-05-12T16:05:47.526Z,14.48
2019-05-12T16:09:51.020Z,14.35
2019-05-12T16:13:59.307Z,14.35
2019-05-12T16:18:05.684Z,14.33
2019-05-12T16:22:05.116Z,14.05
2019-05-12T16:26:12.503Z,14.23
2019-05-12T16:30:14.536Z,14.17
2019-05-12T16:34:19.661Z,13.98
2019-05-12T16:38:24.242Z,13.96
2019-05-12T16:42:28.121Z,13.89
2019-05-12T16:46:33.985Z,13.76
2019-05-12T16:50:37.499Z,13.79
2019-05-12T16:54:40.996Z,13.57
2019-05-12T16:58:44.498Z,13.65
2019-05-12T17:02:52.767Z,13.55
2019-05-12T17:06:53.204Z,13.60
2019-05-12T17:11:15.102Z,13.42
2019-05-12T17:15:04.101Z,13.39
2019-05-12T17:19:10.360Z,13.24
2019-05-12T17:23:13.828Z,13.11
2019-05-12T17:27:23.959Z,13.05
2019-05-12T17:31:22.636Z,12.91
2019-05-12T17:35:31.550Z,12.73
2019-05-12T17:39:35.787Z,12.63
2019-05-12T17:43:40.000Z,12.48
2019-05-12T17:47:44.490Z,12.34
2019-05-12T17:51:47.609Z,12.32
2019-05-12T17:55:53.999Z,12.23
2019-05-12T17:59:59.780Z,12.02
2019-05-12T18:04:04.267Z,11.97
2019-05-12T18:08:08.231Z,11.88
2019-05-12T18:12:13.805Z,11.80
2019-05-12T18:16:21.898Z,11.60
2019-05-12T18:20:23.817Z,11.53
2019-05-12T18:24:27.400Z,11.44
2019-05-12T18:28:33.279Z,11.27
2019-05-12T18:32:36.531Z,11.17
2019-05-12T18:36:40.440Z,10.94
2019-05-12T18:40:44.566Z,10.90
2019-05-12T18:44:48.058Z,10.78
2019-05-12T18:48:54.305Z,10.60
2019-05-12T18:52:56.791Z,10.46
2019-05-12T18:57:07.177Z,10.30
2019-05-12T19:01:06.124Z,10.18
2019-05-12T19:05:15.359Z,10.09
2019-05-12T19:09:15.280Z,10.05
2019-05-12T19:13:18.962Z,9.97
2019-05-12T19:17:24.152Z,9.80
2019-05-12T19:21:28.170Z,9.70
2019-05-12T19:25:35.768Z,9.59
2019-05-12T19:29:45.513Z,9.49
2019-05-12T19:33:52.984Z,9.46
2019-05-12T19:37:47.639Z,9.41
2019-05-12T19:41:51.256Z,9.28
2019-05-12T19:46:03.091Z,9.19
2019-05-12T19:50:09.604Z,9.25
2019-05-12T19:54:09.742Z,9.13
2019-05-12T19:58:13.231Z,9.01
2019-05-12T20:02:16.779Z,8.91
2019-05-12T20:06:20.383Z,8.82
2019-05-12T20:10:24.565Z,8.80
2019-05-12T20:14:28.121Z,8.76
2019-05-12T20:18:36.184Z,8.65
2019-05-12T20:22:36.870Z,8.62
2019-05-12T20:26:40.370Z,8.46
2019-05-12T20:30:44.204Z,8.47
2019-05-12T20:34:53.000Z,8.48
2019-05-12T20:38:55.297Z,8.45
2019-05-12T20:43:07.813Z,8.11
2019-05-12T20:47:06.379Z,8.11
2019-05-12T20:51:15.306Z,8.01
2019-05-12T20:55:14.815Z,8.10
2019-05-12T20:59:22.129Z,7.86
2019-05-12T21:03:24.228Z,7.82
2019-05-12T21:07:27.928Z,7.75
2019-05-12T21:11:33.727Z,7.68
2019-05-12T21:15:42.543Z,7.69
2019-05-12T21:19:55.755Z,7.59
2019-05-12T21:23:54.033Z,7.39
2019-05-12T21:28:01.671Z,7.39
2019-05-12T21:32:02.962Z,7.44
2019-05-12T21:36:03.825Z,7.43
2019-05-12T21:40:08.237Z,7.28
2019-05-12T21:44:13.916Z,7.21
2019-05-12T21:48:23.798Z,7.23
2019-05-12T21:52:23.870Z,7.20
2019-05-12T21:56:27.707Z,7.08
2019-05-12T22:00:45.018Z,7.05
2019-05-12T22:04:50.036Z,6.94
2019-05-12T22:09:01.319Z,6.93
2019-05-12T22:13:09.046Z,6.82
2019-05-12T22:17:07.654Z,6.73
2019-05-12T22:21:13.490Z,6.71
2019-05-12T22:25:17.902Z,6.67
2019-05-12T22:29:27.982Z,6.66
2019-05-12T22:33:26.599Z,6.64
2019-05-12T22:37:34.859Z,6.52
2019-05-12T22:41:41.485Z,6.51
2019-05-12T22:45:44.763Z,6.43
2019-05-12T22:49:52.140Z,6.31
2019-05-12T22:53:53.937Z,6.24
2019-05-12T22:57:57.380Z,6.22
2019-05-12T23:02:01.251Z,6.16
2019-05-12T23:06:20.448Z,6.23
2019-05-12T23:10:11.192Z,6.15
2019-05-12T23:14:20.677Z,6.17
2019-05-12T23:18:26.907Z,6.12
2019-05-12T23:22:29.550Z,6.09
2019-05-12T23:26:35.595Z,6.09
2019-05-12T23:30:43.766Z,6.08
2019-05-12T23:34:54.034Z,6.02
2019-05-12T23:38:59.930Z,5.98
2019-05-12T23:42:56.462Z,5.94
2019-05-12T23:46:59.944Z,5.88
2019-05-12T23:51:03.931Z,5.82
2019-05-12T23:55:08.121Z,5.86
2019-05-12T23:59:13.509Z,5.73
